sensor_id;sensor_type;location;lat;lon;timestamp;P1;durP1;ratioP1;P2;durP2;ratioP2
20627;SDS011;10473;42.734;24.258;2023-04-03T00:01:05;1.47;;;1.03;;
20627;SDS011;10473;42.734;24.258;2023-04-03T00:03:33;3.40;;;1.87;;
20627;SDS011;10473;42.734;24.258;2023-04-03T00:06:01;2.30;;;1.43;;
20627;SDS011;10473;42.734;24.258;2023-04-03T00:08:29;3.17;;;1.77;;
20627;SDS011;10473;42.734;24.258;2023-04-03T00:10:58;2.87;;;1.90;;
20627;SDS011;10473;42.734;24.258;2023-04-03T00:13:27;1.23;;;0.90;;
20627;SDS011;10473;42.734;24.258;2023-04-03T00:15:55;0.50;;;0.43;;
20627;SDS011;10473;42.734;24.258;2023-04-03T00:18:23;1.20;;;0.63;;
20627;SDS011;10473;42.734;24.258;2023-04-03T00:20:51;0.87;;;0.50;;
20627;SDS011;10473;42.734;24.258;2023-04-03T00:23:18;0.50;;;0.40;;
20627;SDS011;10473;42.734;24.258;2023-04-03T00:25:46;0.80;;;0.37;;
20627;SDS011;10473;42.734;24.258;2023-04-03T00:28:14;0.70;;;0.50;;
20627;SDS011;10473;42.734;24.258;2023-04-03T00:30:43;0.97;;;0.50;;
20627;SDS011;10473;42.734;24.258;2023-04-03T00:33:11;3.93;;;2.90;;
20627;SDS011;10473;42.734;24.258;2023-04-03T00:35:39;2.97;;;2.47;;
20627;SDS011;10473;42.734;24.258;2023-04-03T00:38:07;3.13;;;2.07;;
20627;SDS011;10473;42.734;24.258;2023-04-03T00:40:37;2.43;;;1.53;;
20627;SDS011;10473;42.734;24.258;2023-04-03T00:43:10;2.53;;;1.50;;
20627;SDS011;10473;42.734;24.258;2023-04-03T00:45:40;2.10;;;1.47;;
20627;SDS011;10473;42.734;24.258;2023-04-03T00:48:11;2.40;;;1.80;;
20627;SDS011;10473;42.734;24.258;2023-04-03T00:50:43;4.83;;;1.87;;
20627;SDS011;10473;42.734;24.258;2023-04-03T00:53:13;2.20;;;1.07;;
20627;SDS011;10473;42.734;24.258;2023-04-03T00:55:43;3.40;;;0.37;;
20627;SDS011;10473;42.734;24.258;2023-04-03T00:58:13;0.43;;;0.43;;
20627;SDS011;10473;42.734;24.258;2023-04-03T01:00:47;2.03;;;1.73;;
20627;SDS011;10473;42.734;24.258;2023-04-03T01:03:23;0.93;;;0.83;;
20627;SDS011;10473;42.734;24.258;2023-04-03T01:05:52;0.23;;;0.23;;
20627;SDS011;10473;42.734;24.258;2023-04-03T01:08:21;0.37;;;0.33;;
20627;SDS011;10473;42.734;24.258;2023-04-03T01:10:49;0.20;;;0.20;;
20627;SDS011;10473;42.734;24.258;2023-04-03T01:13:22;0.37;;;0.37;;
20627;SDS011;10473;42.734;24.258;2023-04-03T01:15:54;0.17;;;0.17;;
20627;SDS011;10473;42.734;24.258;2023-04-03T01:18:22;0.20;;;0.20;;
20627;SDS011;10473;42.734;24.258;2023-04-03T01:24:04;0.50;;;0.30;;
20627;SDS011;10473;42.734;24.258;2023-04-03T01:26:46;0.43;;;0.40;;
20627;SDS011;10473;42.734;24.258;2023-04-03T01:29:14;0.53;;;0.40;;
20627;SDS011;10473;42.734;24.258;2023-04-03T01:31:51;0.50;;;0.50;;
20627;SDS011;10473;42.734;24.258;2023-04-03T01:34:21;2.47;;;1.13;;
20627;SDS011;10473;42.734;24.258;2023-04-03T01:36:50;0.97;;;0.87;;
20627;SDS011;10473;42.734;24.258;2023-04-03T01:39:20;0.50;;;0.30;;
20627;SDS011;10473;42.734;24.258;2023-04-03T01:41:49;0.73;;;0.57;;
20627;SDS011;10473;42.734;24.258;2023-04-03T01:44:26;1.33;;;0.80;;
20627;SDS011;10473;42.734;24.258;2023-04-03T01:46:55;2.73;;;1.70;;
20627;SDS011;10473;42.734;24.258;2023-04-03T01:49:24;0.93;;;0.80;;
20627;SDS011;10473;42.734;24.258;2023-04-03T01:51:52;0.60;;;0.60;;
20627;SDS011;10473;42.734;24.258;2023-04-03T01:54:20;0.30;;;0.20;;
20627;SDS011;10473;42.734;24.258;2023-04-03T01:56:48;0.20;;;0.17;;
20627;SDS011;10473;42.734;24.258;2023-04-03T01:59:17;0.30;;;0.27;;
20627;SDS011;10473;42.734;24.258;2023-04-03T02:01:45;0.30;;;0.27;;
20627;SDS011;10473;42.734;24.258;2023-04-03T02:04:18;0.10;;;0.10;;
20627;SDS011;10473;42.734;24.258;2023-04-03T02:06:45;0.20;;;0.10;;
20627;SDS011;10473;42.734;24.258;2023-04-03T02:09:13;0.10;;;0.10;;
20627;SDS011;10473;42.734;24.258;2023-04-03T02:11:41;0.20;;;0.20;;
20627;SDS011;10473;42.734;24.258;2023-04-03T02:14:11;0.10;;;0.10;;
20627;SDS011;10473;42.734;24.258;2023-04-03T02:16:38;0.20;;;0.20;;
20627;SDS011;10473;42.734;24.258;2023-04-03T02:19:06;0.40;;;0.40;;
20627;SDS011;10473;42.734;24.258;2023-04-03T02:21:36;0.43;;;0.30;;
20627;SDS011;10473;42.734;24.258;2023-04-03T02:24:03;0.37;;;0.37;;
20627;SDS011;10473;42.734;24.258;2023-04-03T02:26:31;1.43;;;0.40;;
20627;SDS011;10473;42.734;24.258;2023-04-03T02:28:59;0.60;;;0.60;;
20627;SDS011;10473;42.734;24.258;2023-04-03T02:31:28;1.10;;;0.63;;
20627;SDS011;10473;42.734;24.258;2023-04-03T02:33:56;0.40;;;0.40;;
20627;SDS011;10473;42.734;24.258;2023-04-03T02:36:23;1.23;;;0.97;;
20627;SDS011;10473;42.734;24.258;2023-04-03T02:38:57;3.50;;;0.87;;
20627;SDS011;10473;42.734;24.258;2023-04-03T02:41:24;0.30;;;0.30;;
20627;SDS011;10473;42.734;24.258;2023-04-03T02:43:59;0.67;;;0.37;;
20627;SDS011;10473;42.734;24.258;2023-04-03T02:46:27;0.30;;;0.30;;
20627;SDS011;10473;42.734;24.258;2023-04-03T02:48:56;0.13;;;0.10;;
20627;SDS011;10473;42.734;24.258;2023-04-03T02:51:24;0.27;;;0.20;;
20627;SDS011;10473;42.734;24.258;2023-04-03T02:53:53;0.80;;;0.40;;
20627;SDS011;10473;42.734;24.258;2023-04-03T02:56:26;0.27;;;0.20;;
20627;SDS011;10473;42.734;24.258;2023-04-03T02:58:54;0.40;;;0.37;;
20627;SDS011;10473;42.734;24.258;2023-04-03T03:01:22;0.63;;;0.30;;
20627;SDS011;10473;42.734;24.258;2023-04-03T03:03:49;0.10;;;0.10;;
20627;SDS011;10473;42.734;24.258;2023-04-03T03:06:17;1.70;;;0.30;;
20627;SDS011;10473;42.734;24.258;2023-04-03T03:08:45;0.20;;;0.20;;
20627;SDS011;10473;42.734;24.258;2023-04-03T03:11:17;0.27;;;0.20;;
20627;SDS011;10473;42.734;24.258;2023-04-03T03:13:47;0.53;;;0.40;;
20627;SDS011;10473;42.734;24.258;2023-04-03T03:16:14;2.33;;;0.93;;
20627;SDS011;10473;42.734;24.258;2023-04-03T03:18:42;5.87;;;3.83;;
20627;SDS011;10473;42.734;24.258;2023-04-03T03:21:10;4.20;;;2.33;;
20627;SDS011;10473;42.734;24.258;2023-04-03T03:23:38;2.80;;;1.53;;
20627;SDS011;10473;42.734;24.258;2023-04-03T03:26:07;0.47;;;0.40;;
20627;SDS011;10473;42.734;24.258;2023-04-03T03:28:37;2.07;;;1.10;;
20627;SDS011;10473;42.734;24.258;2023-04-03T03:31:09;6.60;;;3.57;;
20627;SDS011;10473;42.734;24.258;2023-04-03T03:33:39;2.93;;;1.33;;
20627;SDS011;10473;42.734;24.258;2023-04-03T03:36:07;2.97;;;2.10;;
20627;SDS011;10473;42.734;24.258;2023-04-03T03:38:36;8.63;;;4.87;;
20627;SDS011;10473;42.734;24.258;2023-04-03T03:41:04;7.83;;;4.07;;
20627;SDS011;10473;42.734;24.258;2023-04-03T03:43:33;13.23;;;6.87;;
20627;SDS011;10473;42.734;24.258;2023-04-03T03:46:03;18.73;;;6.30;;
20627;SDS011;10473;42.734;24.258;2023-04-03T03:48:32;25.83;;;11.03;;
20627;SDS011;10473;42.734;24.258;2023-04-03T03:51:01;16.90;;;6.00;;
20627;SDS011;10473;42.734;24.258;2023-04-03T03:53:32;2.87;;;1.40;;
20627;SDS011;10473;42.734;24.258;2023-04-03T03:56:05;1.10;;;0.73;;
20627;SDS011;10473;42.734;24.258;2023-04-03T03:58:34;0.40;;;0.40;;
20627;SDS011;10473;42.734;24.258;2023-04-03T04:01:03;3.53;;;0.83;;
20627;SDS011;10473;42.734;24.258;2023-04-03T04:03:35;0.90;;;0.40;;
20627;SDS011;10473;42.734;24.258;2023-04-03T04:06:03;2.23;;;1.83;;
20627;SDS011;10473;42.734;24.258;2023-04-03T04:08:31;4.43;;;2.23;;
20627;SDS011;10473;42.734;24.258;2023-04-03T04:11:10;2.90;;;1.80;;
20627;SDS011;10473;42.734;24.258;2023-04-03T04:13:42;2.13;;;1.40;;
20627;SDS011;10473;42.734;24.258;2023-04-03T04:16:11;2.27;;;1.40;;
20627;SDS011;10473;42.734;24.258;2023-04-03T04:18:41;1.13;;;0.93;;
20627;SDS011;10473;42.734;24.258;2023-04-03T04:21:09;1.50;;;1.13;;
20627;SDS011;10473;42.734;24.258;2023-04-03T04:23:38;6.17;;;4.23;;
20627;SDS011;10473;42.734;24.258;2023-04-03T04:26:06;10.40;;;6.27;;
20627;SDS011;10473;42.734;24.258;2023-04-03T04:28:39;3.87;;;3.47;;
20627;SDS011;10473;42.734;24.258;2023-04-03T04:31:07;1.97;;;1.67;;
20627;SDS011;10473;42.734;24.258;2023-04-03T04:33:36;1.47;;;1.37;;
20627;SDS011;10473;42.734;24.258;2023-04-03T04:36:07;1.47;;;1.30;;
20627;SDS011;10473;42.734;24.258;2023-04-03T04:38:35;1.50;;;1.40;;
20627;SDS011;10473;42.734;24.258;2023-04-03T04:41:02;3.00;;;2.17;;
20627;SDS011;10473;42.734;24.258;2023-04-03T04:43:30;6.00;;;2.83;;
20627;SDS011;10473;42.734;24.258;2023-04-03T04:46:01;4.97;;;1.90;;
20627;SDS011;10473;42.734;24.258;2023-04-03T04:48:34;2.60;;;1.70;;
20627;SDS011;10473;42.734;24.258;2023-04-03T04:51:03;2.30;;;1.67;;
20627;SDS011;10473;42.734;24.258;2023-04-03T04:53:32;6.07;;;2.83;;
20627;SDS011;10473;42.734;24.258;2023-04-03T04:56:01;16.20;;;7.97;;
20627;SDS011;10473;42.734;24.258;2023-04-03T04:58:30;46.20;;;27.37;;
20627;SDS011;10473;42.734;24.258;2023-04-03T05:00:59;25.83;;;15.00;;
20627;SDS011;10473;42.734;24.258;2023-04-03T05:03:27;25.50;;;13.47;;
20627;SDS011;10473;42.734;24.258;2023-04-03T05:05:55;26.27;;;14.60;;
20627;SDS011;10473;42.734;24.258;2023-04-03T05:08:23;22.20;;;13.20;;
20627;SDS011;10473;42.734;24.258;2023-04-03T05:10:52;22.37;;;9.27;;
20627;SDS011;10473;42.734;24.258;2023-04-03T05:13:20;10.60;;;6.67;;
20627;SDS011;10473;42.734;24.258;2023-04-03T05:15:48;12.47;;;5.67;;
20627;SDS011;10473;42.734;24.258;2023-04-03T05:18:16;7.50;;;5.10;;
20627;SDS011;10473;42.734;24.258;2023-04-03T05:20:44;6.97;;;3.90;;
20627;SDS011;10473;42.734;24.258;2023-04-03T05:23:11;3.40;;;2.13;;
20627;SDS011;10473;42.734;24.258;2023-04-03T05:25:40;2.63;;;2.03;;
20627;SDS011;10473;42.734;24.258;2023-04-03T05:28:11;3.07;;;2.00;;
20627;SDS011;10473;42.734;24.258;2023-04-03T05:30:40;1.67;;;1.50;;
20627;SDS011;10473;42.734;24.258;2023-04-03T05:33:08;1.57;;;1.47;;
20627;SDS011;10473;42.734;24.258;2023-04-03T05:35:45;1.07;;;1.00;;
20627;SDS011;10473;42.734;24.258;2023-04-03T05:38:17;13.80;;;6.73;;
20627;SDS011;10473;42.734;24.258;2023-04-03T05:40:46;18.37;;;8.23;;
20627;SDS011;10473;42.734;24.258;2023-04-03T05:43:15;20.20;;;8.87;;
20627;SDS011;10473;42.734;24.258;2023-04-03T05:45:44;11.67;;;5.87;;
20627;SDS011;10473;42.734;24.258;2023-04-03T05:48:11;10.87;;;5.63;;
20627;SDS011;10473;42.734;24.258;2023-04-03T05:50:39;7.60;;;4.00;;
20627;SDS011;10473;42.734;24.258;2023-04-03T05:53:12;5.93;;;3.90;;
20627;SDS011;10473;42.734;24.258;2023-04-03T05:55:45;3.70;;;2.60;;
20627;SDS011;10473;42.734;24.258;2023-04-03T05:58:13;8.37;;;4.13;;
20627;SDS011;10473;42.734;24.258;2023-04-03T06:00:43;8.40;;;4.73;;
20627;SDS011;10473;42.734;24.258;2023-04-03T06:03:12;13.03;;;6.73;;
20627;SDS011;10473;42.734;24.258;2023-04-03T06:05:39;9.87;;;5.93;;
20627;SDS011;10473;42.734;24.258;2023-04-03T06:08:07;5.53;;;4.10;;
20627;SDS011;10473;42.734;24.258;2023-04-03T06:10:36;5.23;;;3.40;;
20627;SDS011;10473;42.734;24.258;2023-04-03T06:13:05;3.33;;;2.73;;
20627;SDS011;10473;42.734;24.258;2023-04-03T06:15:33;3.27;;;2.30;;
20627;SDS011;10473;42.734;24.258;2023-04-03T06:18:03;5.47;;;2.33;;
20627;SDS011;10473;42.734;24.258;2023-04-03T06:20:31;13.20;;;8.20;;
20627;SDS011;10473;42.734;24.258;2023-04-03T06:22:58;10.80;;;6.30;;
20627;SDS011;10473;42.734;24.258;2023-04-03T06:25:27;6.07;;;4.53;;
20627;SDS011;10473;42.734;24.258;2023-04-03T06:27:55;7.97;;;5.13;;
20627;SDS011;10473;42.734;24.258;2023-04-03T06:30:22;8.53;;;6.33;;
20627;SDS011;10473;42.734;24.258;2023-04-03T06:32:50;4.27;;;2.97;;
20627;SDS011;10473;42.734;24.258;2023-04-03T06:35:20;3.50;;;2.70;;
20627;SDS011;10473;42.734;24.258;2023-04-03T06:37:49;4.83;;;3.30;;
20627;SDS011;10473;42.734;24.258;2023-04-03T06:40:18;4.57;;;3.27;;
20627;SDS011;10473;42.734;24.258;2023-04-03T06:42:49;6.33;;;4.00;;
20627;SDS011;10473;42.734;24.258;2023-04-03T06:45:18;9.67;;;5.67;;
20627;SDS011;10473;42.734;24.258;2023-04-03T06:47:47;5.57;;;4.60;;
20627;SDS011;10473;42.734;24.258;2023-04-03T06:50:15;5.37;;;2.83;;
20627;SDS011;10473;42.734;24.258;2023-04-03T06:52:44;8.60;;;4.20;;
20627;SDS011;10473;42.734;24.258;2023-04-03T06:55:12;11.00;;;5.37;;
20627;SDS011;10473;42.734;24.258;2023-04-03T06:57:39;8.50;;;4.97;;
20627;SDS011;10473;42.734;24.258;2023-04-03T07:00:07;5.70;;;3.80;;
20627;SDS011;10473;42.734;24.258;2023-04-03T07:02:36;4.33;;;3.83;;
20627;SDS011;10473;42.734;24.258;2023-04-03T07:05:04;7.07;;;4.50;;
20627;SDS011;10473;42.734;24.258;2023-04-03T07:07:34;5.10;;;3.63;;
20627;SDS011;10473;42.734;24.258;2023-04-03T07:10:06;4.50;;;3.10;;
20627;SDS011;10473;42.734;24.258;2023-04-03T07:12:34;6.07;;;2.73;;
20627;SDS011;10473;42.734;24.258;2023-04-03T07:15:02;3.10;;;2.57;;
20627;SDS011;10473;42.734;24.258;2023-04-03T07:17:31;5.30;;;2.43;;
20627;SDS011;10473;42.734;24.258;2023-04-03T07:19:59;4.97;;;2.60;;
20627;SDS011;10473;42.734;24.258;2023-04-03T07:22:31;3.53;;;2.83;;
20627;SDS011;10473;42.734;24.258;2023-04-03T07:24:58;3.67;;;2.93;;
20627;SDS011;10473;42.734;24.258;2023-04-03T07:27:28;6.53;;;3.97;;
20627;SDS011;10473;42.734;24.258;2023-04-03T07:29:56;7.83;;;4.17;;
20627;SDS011;10473;42.734;24.258;2023-04-03T07:32:24;11.43;;;8.07;;
20627;SDS011;10473;42.734;24.258;2023-04-03T07:34:52;7.23;;;4.47;;
20627;SDS011;10473;42.734;24.258;2023-04-03T07:37:19;5.30;;;3.33;;
20627;SDS011;10473;42.734;24.258;2023-04-03T07:39:48;2.87;;;2.13;;
20627;SDS011;10473;42.734;24.258;2023-04-03T07:42:16;14.30;;;7.53;;
20627;SDS011;10473;42.734;24.258;2023-04-03T07:44:46;5.17;;;2.83;;
20627;SDS011;10473;42.734;24.258;2023-04-03T07:47:13;1.10;;;1.00;;
20627;SDS011;10473;42.734;24.258;2023-04-03T07:49:43;2.17;;;1.70;;
20627;SDS011;10473;42.734;24.258;2023-04-03T07:52:10;3.53;;;1.57;;
20627;SDS011;10473;42.734;24.258;2023-04-03T07:54:40;1.67;;;0.80;;
20627;SDS011;10473;42.734;24.258;2023-04-03T07:57:09;0.53;;;0.50;;
20627;SDS011;10473;42.734;24.258;2023-04-03T07:59:37;0.37;;;0.37;;
20627;SDS011;10473;42.734;24.258;2023-04-03T08:02:09;0.70;;;0.60;;
20627;SDS011;10473;42.734;24.258;2023-04-03T08:04:37;0.60;;;0.50;;
20627;SDS011;10473;42.734;24.258;2023-04-03T08:07:04;0.50;;;0.40;;
20627;SDS011;10473;42.734;24.258;2023-04-03T08:09:32;0.50;;;0.50;;
20627;SDS011;10473;42.734;24.258;2023-04-03T08:12:00;1.57;;;0.60;;
20627;SDS011;10473;42.734;24.258;2023-04-03T08:14:29;0.80;;;0.60;;
20627;SDS011;10473;42.734;24.258;2023-04-03T08:17:01;0.43;;;0.43;;
20627;SDS011;10473;42.734;24.258;2023-04-03T08:19:32;0.87;;;0.40;;
20627;SDS011;10473;42.734;24.258;2023-04-03T08:21:59;0.30;;;0.30;;
20627;SDS011;10473;42.734;24.258;2023-04-03T08:24:28;0.50;;;0.50;;
20627;SDS011;10473;42.734;24.258;2023-04-03T08:26:57;0.67;;;0.50;;
20627;SDS011;10473;42.734;24.258;2023-04-03T08:29:25;0.50;;;0.40;;
20627;SDS011;10473;42.734;24.258;2023-04-03T08:31:52;0.30;;;0.30;;
20627;SDS011;10473;42.734;24.258;2023-04-03T08:34:20;0.50;;;0.30;;
20627;SDS011;10473;42.734;24.258;2023-04-03T08:36:49;0.87;;;0.30;;
20627;SDS011;10473;42.734;24.258;2023-04-03T08:39:17;0.30;;;0.30;;
20627;SDS011;10473;42.734;24.258;2023-04-03T08:41:45;0.80;;;0.80;;
20627;SDS011;10473;42.734;24.258;2023-04-03T08:44:15;0.10;;;0.10;;
20627;SDS011;10473;42.734;24.258;2023-04-03T08:46:56;0.50;;;0.40;;
20627;SDS011;10473;42.734;24.258;2023-04-03T08:49:31;0.30;;;0.23;;
20627;SDS011;10473;42.734;24.258;2023-04-03T08:52:02;0.40;;;0.40;;
20627;SDS011;10473;42.734;24.258;2023-04-03T08:54:40;0.50;;;0.40;;
20627;SDS011;10473;42.734;24.258;2023-04-03T08:57:17;0.30;;;0.30;;
20627;SDS011;10473;42.734;24.258;2023-04-03T08:59:53;0.40;;;0.33;;
20627;SDS011;10473;42.734;24.258;2023-04-03T09:02:26;0.23;;;0.23;;
20627;SDS011;10473;42.734;24.258;2023-04-03T09:04:59;1.27;;;0.57;;
20627;SDS011;10473;42.734;24.258;2023-04-03T09:07:33;0.73;;;0.70;;
20627;SDS011;10473;42.734;24.258;2023-04-03T09:10:05;0.30;;;0.30;;
20627;SDS011;10473;42.734;24.258;2023-04-03T09:12:38;0.30;;;0.30;;
20627;SDS011;10473;42.734;24.258;2023-04-03T09:15:10;1.03;;;0.50;;
20627;SDS011;10473;42.734;24.258;2023-04-03T09:17:47;0.33;;;0.30;;
20627;SDS011;10473;42.734;24.258;2023-04-03T09:20:30;2.13;;;0.90;;
20627;SDS011;10473;42.734;24.258;2023-04-03T09:23:12;6.80;;;2.47;;
20627;SDS011;10473;42.734;24.258;2023-04-03T09:25:44;3.70;;;1.97;;
20627;SDS011;10473;42.734;24.258;2023-04-03T09:28:12;8.67;;;4.10;;
20627;SDS011;10473;42.734;24.258;2023-04-03T09:30:40;2.43;;;0.90;;
20627;SDS011;10473;42.734;24.258;2023-04-03T09:33:08;2.00;;;1.27;;
20627;SDS011;10473;42.734;24.258;2023-04-03T09:35:37;6.00;;;4.13;;
20627;SDS011;10473;42.734;24.258;2023-04-03T09:38:16;3.57;;;2.00;;
20627;SDS011;10473;42.734;24.258;2023-04-03T09:40:46;1.13;;;1.00;;
20627;SDS011;10473;42.734;24.258;2023-04-03T09:43:25;0.43;;;0.43;;
20627;SDS011;10473;42.734;24.258;2023-04-03T09:45:56;0.50;;;0.50;;
20627;SDS011;10473;42.734;24.258;2023-04-03T09:48:49;0.40;;;0.33;;
20627;SDS011;10473;42.734;24.258;2023-04-03T09:51:18;0.60;;;0.60;;
20627;SDS011;10473;42.734;24.258;2023-04-03T09:53:47;1.13;;;0.70;;
20627;SDS011;10473;42.734;24.258;2023-04-03T09:56:19;0.80;;;0.53;;
20627;SDS011;10473;42.734;24.258;2023-04-03T09:58:49;0.60;;;0.60;;
20627;SDS011;10473;42.734;24.258;2023-04-03T10:01:26;0.30;;;0.30;;
20627;SDS011;10473;42.734;24.258;2023-04-03T10:04:06;0.30;;;0.23;;
20627;SDS011;10473;42.734;24.258;2023-04-03T10:06:36;0.40;;;0.40;;
20627;SDS011;10473;42.734;24.258;2023-04-03T10:09:18;0.50;;;0.33;;
20627;SDS011;10473;42.734;24.258;2023-04-03T10:12:00;0.40;;;0.40;;
20627;SDS011;10473;42.734;24.258;2023-04-03T10:14:32;0.40;;;0.40;;
20627;SDS011;10473;42.734;24.258;2023-04-03T10:17:03;0.53;;;0.53;;
20627;SDS011;10473;42.734;24.258;2023-04-03T10:20:17;0.60;;;0.50;;
20627;SDS011;10473;42.734;24.258;2023-04-03T10:23:02;0.50;;;0.40;;
20627;SDS011;10473;42.734;24.258;2023-04-03T10:25:46;0.40;;;0.40;;
20627;SDS011;10473;42.734;24.258;2023-04-03T10:28:23;0.33;;;0.33;;
20627;SDS011;10473;42.734;24.258;2023-04-03T10:31:01;1.43;;;0.90;;
20627;SDS011;10473;42.734;24.258;2023-04-03T10:33:39;4.20;;;1.87;;
20627;SDS011;10473;42.734;24.258;2023-04-03T10:36:24;4.93;;;2.43;;
20627;SDS011;10473;42.734;24.258;2023-04-03T10:39:00;2.90;;;1.23;;
20627;SDS011;10473;42.734;24.258;2023-04-03T10:41:42;1.03;;;0.60;;
20627;SDS011;10473;42.734;24.258;2023-04-03T10:44:20;1.67;;;1.10;;
20627;SDS011;10473;42.734;24.258;2023-04-03T10:46:58;1.53;;;0.77;;
20627;SDS011;10473;42.734;24.258;2023-04-03T10:49:37;1.27;;;1.17;;
20627;SDS011;10473;42.734;24.258;2023-04-03T10:52:17;1.90;;;0.70;;
20627;SDS011;10473;42.734;24.258;2023-04-03T10:54:51;0.97;;;0.70;;
20627;SDS011;10473;42.734;24.258;2023-04-03T10:57:29;1.37;;;0.97;;
20627;SDS011;10473;42.734;24.258;2023-04-03T10:59:58;0.67;;;0.60;;
20627;SDS011;10473;42.734;24.258;2023-04-03T11:02:28;1.27;;;1.00;;
20627;SDS011;10473;42.734;24.258;2023-04-03T11:04:59;1.43;;;1.20;;
20627;SDS011;10473;42.734;24.258;2023-04-03T11:07:29;1.33;;;1.20;;
20627;SDS011;10473;42.734;24.258;2023-04-03T11:10:05;1.50;;;1.00;;
20627;SDS011;10473;42.734;24.258;2023-04-03T11:12:43;0.70;;;0.70;;
20627;SDS011;10473;42.734;24.258;2023-04-03T11:15:15;0.63;;;0.63;;
20627;SDS011;10473;42.734;24.258;2023-04-03T11:17:46;1.07;;;0.50;;
20627;SDS011;10473;42.734;24.258;2023-04-03T11:20:20;0.63;;;0.50;;
20627;SDS011;10473;42.734;24.258;2023-04-03T11:22:57;0.70;;;0.40;;
20627;SDS011;10473;42.734;24.258;2023-04-03T11:25:27;1.73;;;0.70;;
20627;SDS011;10473;42.734;24.258;2023-04-03T11:27:58;2.40;;;0.87;;
20627;SDS011;10473;42.734;24.258;2023-04-03T11:30:28;2.03;;;0.90;;
20627;SDS011;10473;42.734;24.258;2023-04-03T11:35:58;3.53;;;1.13;;
20627;SDS011;10473;42.734;24.258;2023-04-03T11:38:30;0.60;;;0.60;;
20627;SDS011;10473;42.734;24.258;2023-04-03T11:41:03;1.93;;;1.73;;
20627;SDS011;10473;42.734;24.258;2023-04-03T11:43:39;1.50;;;0.90;;
20627;SDS011;10473;42.734;24.258;2023-04-03T11:46:08;1.00;;;0.80;;
20627;SDS011;10473;42.734;24.258;2023-04-03T11:48:44;1.37;;;0.70;;
20627;SDS011;10473;42.734;24.258;2023-04-03T12:06:43;5.83;;;3.20;;
20627;SDS011;10473;42.734;24.258;2023-04-03T12:09:26;4.87;;;3.10;;
20627;SDS011;10473;42.734;24.258;2023-04-03T12:12:21;1.47;;;1.20;;
20627;SDS011;10473;42.734;24.258;2023-04-03T12:14:54;2.30;;;1.87;;
20627;SDS011;10473;42.734;24.258;2023-04-03T12:17:26;1.20;;;1.10;;
20627;SDS011;10473;42.734;24.258;2023-04-03T12:19:55;1.70;;;1.40;;
20627;SDS011;10473;42.734;24.258;2023-04-03T12:22:23;2.73;;;1.93;;
20627;SDS011;10473;42.734;24.258;2023-04-03T12:24:51;2.17;;;1.93;;
20627;SDS011;10473;42.734;24.258;2023-04-03T12:30:13;29.07;;;14.27;;
20627;SDS011;10473;42.734;24.258;2023-04-03T12:32:51;7.77;;;4.93;;
20627;SDS011;10473;42.734;24.258;2023-04-03T12:35:35;14.00;;;8.33;;
20627;SDS011;10473;42.734;24.258;2023-04-03T12:38:17;7.90;;;3.10;;
20627;SDS011;10473;42.734;24.258;2023-04-03T12:41:04;13.83;;;8.67;;
20627;SDS011;10473;42.734;24.258;2023-04-03T12:43:48;10.50;;;7.13;;
20627;SDS011;10473;42.734;24.258;2023-04-03T12:46:26;8.17;;;6.47;;
20627;SDS011;10473;42.734;24.258;2023-04-03T12:49:12;70.33;;;32.13;;
20627;SDS011;10473;42.734;24.258;2023-04-03T12:51:51;14.90;;;8.20;;
20627;SDS011;10473;42.734;24.258;2023-04-03T12:54:19;13.60;;;7.30;;
20627;SDS011;10473;42.734;24.258;2023-04-03T12:59:36;31.93;;;16.07;;
20627;SDS011;10473;42.734;24.258;2023-04-03T13:02:10;8.57;;;3.87;;
20627;SDS011;10473;42.734;24.258;2023-04-03T13:04:50;19.30;;;8.40;;
20627;SDS011;10473;42.734;24.258;2023-04-03T13:07:21;7.70;;;4.90;;
20627;SDS011;10473;42.734;24.258;2023-04-03T13:10:02;29.83;;;14.10;;
20627;SDS011;10473;42.734;24.258;2023-04-03T13:12:45;12.33;;;7.03;;
20627;SDS011;10473;42.734;24.258;2023-04-03T13:15:15;17.70;;;8.67;;
20627;SDS011;10473;42.734;24.258;2023-04-03T13:17:45;6.53;;;4.17;;
20627;SDS011;10473;42.734;24.258;2023-04-03T13:20:19;3.70;;;2.47;;
20627;SDS011;10473;42.734;24.258;2023-04-03T13:22:51;2.33;;;2.03;;
20627;SDS011;10473;42.734;24.258;2023-04-03T13:25:24;1.70;;;1.60;;
20627;SDS011;10473;42.734;24.258;2023-04-03T13:27:55;1.63;;;1.53;;
20627;SDS011;10473;42.734;24.258;2023-04-03T13:30:26;2.07;;;1.53;;
20627;SDS011;10473;42.734;24.258;2023-04-03T13:32:57;2.43;;;1.83;;
20627;SDS011;10473;42.734;24.258;2023-04-03T13:35:31;9.70;;;4.93;;
20627;SDS011;10473;42.734;24.258;2023-04-03T13:38:03;30.77;;;17.53;;
20627;SDS011;10473;42.734;24.258;2023-04-03T13:40:33;20.63;;;12.03;;
20627;SDS011;10473;42.734;24.258;2023-04-03T13:43:18;9.13;;;6.07;;
20627;SDS011;10473;42.734;24.258;2023-04-03T13:45:54;3.87;;;3.20;;
20627;SDS011;10473;42.734;24.258;2023-04-03T13:48:25;3.37;;;2.97;;
20627;SDS011;10473;42.734;24.258;2023-04-03T13:50:56;6.47;;;2.97;;
20627;SDS011;10473;42.734;24.258;2023-04-03T13:53:26;14.33;;;10.50;;
20627;SDS011;10473;42.734;24.258;2023-04-03T13:55:57;4.30;;;2.73;;
20627;SDS011;10473;42.734;24.258;2023-04-03T13:58:32;4.73;;;2.73;;
20627;SDS011;10473;42.734;24.258;2023-04-03T14:01:06;3.60;;;3.10;;
20627;SDS011;10473;42.734;24.258;2023-04-03T14:03:42;2.97;;;2.20;;
20627;SDS011;10473;42.734;24.258;2023-04-03T14:06:15;4.43;;;1.93;;
20627;SDS011;10473;42.734;24.258;2023-04-03T14:08:44;1.20;;;1.00;;
20627;SDS011;10473;42.734;24.258;2023-04-03T14:11:15;1.90;;;1.17;;
20627;SDS011;10473;42.734;24.258;2023-04-03T14:13:46;1.27;;;0.87;;
20627;SDS011;10473;42.734;24.258;2023-04-03T14:16:17;1.10;;;0.63;;
20627;SDS011;10473;42.734;24.258;2023-04-03T14:18:49;0.90;;;0.90;;
20627;SDS011;10473;42.734;24.258;2023-04-03T14:21:21;0.63;;;0.63;;
20627;SDS011;10473;42.734;24.258;2023-04-03T14:23:50;0.80;;;0.80;;
20627;SDS011;10473;42.734;24.258;2023-04-03T14:26:19;0.90;;;0.83;;
20627;SDS011;10473;42.734;24.258;2023-04-03T14:28:50;0.30;;;0.30;;
20627;SDS011;10473;42.734;24.258;2023-04-03T14:31:21;0.80;;;0.73;;
20627;SDS011;10473;42.734;24.258;2023-04-03T14:33:49;0.67;;;0.60;;
20627;SDS011;10473;42.734;24.258;2023-04-03T14:36:18;7.17;;;3.43;;
20627;SDS011;10473;42.734;24.258;2023-04-03T14:38:49;1.37;;;0.87;;
20627;SDS011;10473;42.734;24.258;2023-04-03T14:41:18;2.87;;;1.83;;
20627;SDS011;10473;42.734;24.258;2023-04-03T14:43:48;3.07;;;2.40;;
20627;SDS011;10473;42.734;24.258;2023-04-03T14:46:18;4.83;;;2.33;;
20627;SDS011;10473;42.734;24.258;2023-04-03T14:48:49;2.53;;;2.07;;
20627;SDS011;10473;42.734;24.258;2023-04-03T14:51:16;1.43;;;0.90;;
20627;SDS011;10473;42.734;24.258;2023-04-03T14:53:44;2.37;;;1.30;;
20627;SDS011;10473;42.734;24.258;2023-04-03T14:56:18;4.67;;;2.53;;
20627;SDS011;10473;42.734;24.258;2023-04-03T14:58:48;2.53;;;2.33;;
20627;SDS011;10473;42.734;24.258;2023-04-03T15:01:18;5.37;;;4.80;;
20627;SDS011;10473;42.734;24.258;2023-04-03T15:03:46;3.37;;;2.63;;
20627;SDS011;10473;42.734;24.258;2023-04-03T15:06:14;3.27;;;1.70;;
20627;SDS011;10473;42.734;24.258;2023-04-03T15:08:42;0.80;;;0.80;;
20627;SDS011;10473;42.734;24.258;2023-04-03T15:11:11;1.60;;;1.33;;
20627;SDS011;10473;42.734;24.258;2023-04-03T15:13:40;2.70;;;2.20;;
20627;SDS011;10473;42.734;24.258;2023-04-03T15:16:11;2.30;;;2.00;;
20627;SDS011;10473;42.734;24.258;2023-04-03T15:18:42;3.17;;;2.30;;
20627;SDS011;10473;42.734;24.258;2023-04-03T15:21:11;2.83;;;1.97;;
20627;SDS011;10473;42.734;24.258;2023-04-03T15:23:39;1.20;;;1.10;;